Time;durP1;ratioP1;P1;durP2;ratioP2;P2;SDS_P1;SDS_P2;PMS_P1;PMS_P2;Temp;Humidity;BMP_temperature;BMP_pressure;BME280_temperature;BME280_humidity;BME280_pressure;Samples;Min_cycle;Max_cycle;Signal;HPM_P1;HPM_P2
2022/06/08 00:00:57;;;;;;;5.35;2.50;;;;;;;20.07;51.35;147190.47;1689258;84;21129;-60
2022/06/08 00:03:38;;;;;;;6.33;2.42;;;;;;;20.09;51.12;147196.80;1690814;84;21902;-60
2022/06/08 00:06:06;;;;;;;5.25;2.40;;;;;;;20.09;50.96;147196.80;1668742;84;21053;-62
2022/06/08 00:08:34;;;;;;;6.28;2.45;;;;;;;20.11;50.97;147201.86;1665990;85;21067;-61
2022/06/08 00:11:01;;;;;;;5.25;2.15;;;;;;;20.12;50.64;147203.11;1665619;85;21047;-61
2022/06/08 00:13:29;;;;;;;14.85;2.42;;;;;;;20.09;50.58;147196.80;1667543;85;21103;-60
2022/06/08 00:15:57;;;;;;;5.85;2.47;;;;;;;20.04;50.77;147184.16;1670653;83;21174;-60
2022/06/08 00:18:25;;;;;;;6.53;2.52;;;;;;;19.99;50.86;147170.28;1637813;86;21054;-61
2022/06/08 00:20:52;;;;;;;4.87;2.20;;;;;;;19.95;51.04;147161.45;1663775;85;21080;-61
2022/06/08 00:23:19;;;;;;;4.83;2.37;;;;;;;19.90;51.07;147148.81;1666533;86;21069;-60
2022/06/08 00:25:46;;;;;;;7.92;2.92;;;;;;;19.87;51.22;147141.20;1659088;85;21029;-59
2022/06/08 00:28:13;;;;;;;4.90;2.37;;;;;;;19.83;51.25;147131.12;1659070;86;21087;-60
2022/06/08 00:30:41;;;;;;;4.25;2.35;;;;;;;19.78;51.42;147119.75;1659143;86;21104;-60
2022/06/08 00:33:08;;;;;;;5.22;2.50;;;;;;;19.76;51.36;147114.69;1659382;86;21211;-61
2022/06/08 00:35:37;;;;;;;4.45;2.20;;;;;;;19.74;51.37;147109.63;1659419;86;21071;-60
2022/06/08 00:38:06;;;;;;;7.50;2.10;;;;;;;19.70;51.56;147100.81;1659069;86;21021;-60
2022/06/08 00:41:07;;;;;;;4.55;2.10;;;;;;;19.68;51.59;147095.75;1659001;85;21506;-59
2022/06/08 00:43:36;;;;;;;4.35;2.30;;;;;;;19.65;51.59;147088.13;1659210;86;21549;-60
2022/06/08 00:46:05;;;;;;;6.00;2.60;;;;;;;19.60;51.71;147075.50;1659291;84;21033;-60
2022/06/08 00:48:37;;;;;;;5.42;2.25;;;;;;;19.59;51.83;147071.69;1640407;85;21578;-60
2022/06/08 00:51:05;;;;;;;5.67;2.42;;;;;;;19.55;51.78;147061.63;1659323;85;21198;-60
2022/06/08 00:53:52;;;;;;;4.53;2.33;;;;;;;19.51;51.98;147052.75;1659259;85;21064;-60
2022/06/08 00:56:25;;;;;;;6.15;2.75;;;;;;;19.48;52.08;147045.19;1658107;85;21106;-59
2022/06/08 00:58:53;;;;;;;4.40;2.50;;;;;;;19.43;52.08;147032.56;1659462;85;21037;-60
2022/06/08 01:01:21;;;;;;;4.47;2.05;;;;;;;19.39;52.25;147023.75;1659379;85;21018;-60
2022/06/08 01:03:48;;;;;;;4.60;2.12;;;;;;;19.36;52.31;147016.17;1659080;85;21073;-60
2022/06/08 01:06:22;;;;;;;5.92;2.35;;;;;;;19.34;52.28;147009.86;1650495;85;21045;-60
2022/06/08 01:08:53;;;;;;;8.25;2.02;;;;;;;19.32;52.33;147004.81;1649850;86;21082;-60
2022/06/08 01:11:33;;;;;;;4.72;2.37;;;;;;;19.29;52.29;146999.75;1645134;87;21072;-60
2022/06/08 01:14:06;;;;;;;4.37;2.27;;;;;;;19.26;52.45;146992.17;1645331;87;21165;-61
2022/06/08 01:16:34;;;;;;;6.12;2.30;;;;;;;19.23;52.57;146984.61;1645413;87;21064;-60
2022/06/08 01:19:04;;;;;;;6.10;2.37;;;;;;;19.21;52.56;146979.55;1645345;87;21013;-60
2022/06/08 01:21:38;;;;;;;4.45;2.50;;;;;;;19.18;52.77;146971.94;1646708;85;21057;-60
2022/06/08 01:24:12;;;;;;;4.90;2.30;;;;;;;19.16;52.80;146965.63;1644759;86;21059;-60
2022/06/08 01:27:05;;;;;;;4.03;2.30;;;;;;;19.12;52.82;146956.81;1645426;87;21023;-60
2022/06/08 01:29:55;;;;;;;3.87;2.30;;;;;;;19.11;52.85;146954.30;1645076;87;21619;-60
2022/06/08 01:32:48;;;;;;;7.53;2.77;;;;;;;19.08;52.93;146946.69;1660050;86;21091;-60
2022/06/08 01:35:21;;;;;;;5.15;2.42;;;;;;;19.07;52.99;146945.44;1661465;86;21091;-60
2022/06/08 01:38:02;;;;;;;5.62;2.37;;;;;;;19.05;52.97;146940.38;1661681;85;21040;-60
2022/06/08 01:40:48;;;;;;;;;;;;;;;19.06;52.92;146941.69;1664108;86;21549;-60
2022/06/08 01:43:38;;;;;;;4.78;2.20;;;;;;;19.08;52.82;146948.00;1642690;86;20107;-60
2022/06/08 01:46:11;;;;;;;5.00;2.27;;;;;;;19.09;52.73;146949.25;1645123;87;21071;-60
2022/06/08 01:49:17;;;;;;;5.28;2.42;;;;;;;19.13;52.57;146959.31;1645148;85;21066;-59
2022/06/08 01:52:24;;;;;;;4.78;2.50;;;;;;;19.15;52.45;146964.38;1650812;85;21083;-59
2022/06/08 01:55:23;;;;;;;5.55;2.10;;;;;;;19.19;52.26;146973.23;1661424;85;21577;-61
2022/06/08 01:58:12;;;;;;;7.28;2.62;;;;;;;19.22;52.11;146980.81;1646230;85;21055;-61
2022/06/08 02:00:59;;;;;;;5.17;2.08;;;;;;;19.27;52.06;146994.69;1646301;85;21055;-60
2022/06/08 02:03:46;;;;;;;6.15;2.37;;;;;;;19.30;51.88;147002.25;1652412;85;21510;-59
2022/06/08 02:06:31;;;;;;;6.30;2.33;;;;;;;19.34;51.79;147009.86;1663965;85;21051;-60
2022/06/08 02:09:10;;;;;;;5.15;2.37;;;;;;;19.35;51.80;147013.63;1661380;86;21070;-60
2022/06/08 02:11:50;;;;;;;3.83;1.90;;;;;;;19.38;51.73;147021.19;1652369;86;21520;-60
2022/06/08 02:14:26;;;;;;;5.20;2.20;;;;;;;19.40;51.61;147026.25;1652132;85;21000;-59
2022/06/08 02:17:21;;;;;;;7.37;2.27;;;;;;;19.42;51.52;147030.05;1693042;83;21028;-60
2022/06/08 02:19:53;;;;;;;4.35;2.10;;;;;;;19.45;51.43;147037.63;1695328;83;21084;-60
2022/06/08 02:22:39;;;;;;;4.25;2.12;;;;;;;19.49;51.28;147047.73;1693130;83;21052;-60
2022/06/08 02:25:19;;;;;;;5.62;2.12;;;;;;;19.51;51.15;147052.75;1693326;83;21072;-59
2022/06/08 02:28:01;;;;;;;7.12;2.30;;;;;;;19.54;51.09;147060.38;1717305;83;21524;-61
2022/06/08 02:30:35;;;;;;;6.72;2.45;;;;;;;19.57;51.09;147067.94;1708530;81;21559;-60
2022/06/08 02:36:08;;;;;;;5.75;2.70;;;;;;;19.59;51.12;147073.00;1733860;82;21555;-60
2022/06/08 02:38:40;;;;;;;6.95;2.25;;;;;;;19.60;51.12;147075.50;1738471;82;21039;-60
2022/06/08 02:41:10;;;;;;;6.42;2.10;;;;;;;19.61;51.13;147078.00;1739501;82;21058;-60
2022/06/08 02:43:45;;;;;;;5.42;2.17;;;;;;;19.64;51.21;147085.63;1739723;82;21552;-60
2022/06/08 02:46:28;;;;;;;4.47;2.55;;;;;;;19.65;51.25;147088.13;1739784;82;21053;-60
2022/06/08 02:48:55;;;;;;;5.03;2.10;;;;;;;19.67;51.16;147093.23;1734853;82;21080;-60
2022/06/08 02:51:30;;;;;;;4.80;2.40;;;;;;;19.72;51.06;147104.63;1731850;83;21058;-61
2022/06/08 02:54:15;;;;;;;4.12;2.35;;;;;;;19.77;50.90;147117.25;1731845;83;21023;-59
2022/06/08 02:57:08;;;;;;;5.17;1.75;;;;;;;19.81;50.78;147127.31;1727449;83;21032;-60
2022/06/08 02:59:40;;;;;;;4.05;2.05;;;;;;;19.89;50.56;147146.27;1731722;83;21087;-60
2022/06/08 03:02:23;;;;;;;6.03;2.00;;;;;;;19.97;50.40;147166.47;1731868;83;21031;-60
2022/06/08 03:05:01;;;;;;;3.25;1.87;;;;;;;20.04;50.34;147184.16;1731632;83;21054;-60
2022/06/08 03:07:34;;;;;;;3.90;2.08;;;;;;;20.11;50.12;147200.59;1731912;83;21094;-61
2022/06/08 03:10:07;;;;;;;3.95;2.27;;;;;;;20.18;49.80;147217.05;1732681;83;21023;-60
2022/06/08 03:12:44;;;;;;;4.78;2.08;;;;;;;20.26;49.73;147238.50;1732885;83;21058;-59
2022/06/08 03:15:16;;;;;;;5.12;2.02;;;;;;;20.32;49.47;147253.64;1732569;83;21050;-60
2022/06/08 03:17:47;;;;;;;4.37;2.20;;;;;;;20.43;49.01;147278.91;1732804;83;21039;-59
2022/06/08 03:20:13;;;;;;;4.85;2.08;;;;;;;20.48;48.72;147292.84;1700591;81;21484;-60
2022/06/08 03:22:41;;;;;;;5.72;2.15;;;;;;;20.52;48.61;147301.67;1733162;83;21094;-60
2022/06/08 03:25:11;;;;;;;4.00;2.40;;;;;;;20.53;48.42;147305.48;1733281;83;21615;-61
2022/06/08 03:27:42;;;;;;;4.00;1.77;;;;;;;20.50;48.81;147297.88;1733572;83;21043;-61
2022/06/08 03:30:12;;;;;;;5.72;2.27;;;;;;;20.51;48.69;147299.17;1735349;81;21550;-61
2022/06/08 03:32:40;;;;;;;4.92;2.40;;;;;;;20.57;48.56;147314.36;1733489;81;21250;-60
2022/06/08 03:35:09;;;;;;;8.65;2.27;;;;;;;20.58;48.56;147316.88;1733474;83;21046;-61
2022/06/08 03:37:38;;;;;;;6.92;2.40;;;;;;;20.63;48.56;147328.25;1733488;83;20991;-60
2022/06/08 03:40:09;;;;;;;4.28;2.20;;;;;;;20.67;48.40;147339.63;1748108;81;21016;-60
2022/06/08 03:42:36;;;;;;;4.83;2.20;;;;;;;20.73;48.64;147353.53;1735126;81;21026;-60
2022/06/08 03:45:04;;;;;;;4.00;2.35;;;;;;;20.77;48.65;147364.91;1731654;83;21548;-61
2022/06/08 03:47:37;;;;;;;8.58;3.27;;;;;;;20.86;48.65;147385.12;1732314;82;21027;-61
2022/06/08 03:50:08;;;;;;;4.25;2.20;;;;;;;20.92;48.64;147400.31;1732318;83;21075;-61
2022/06/08 03:52:40;;;;;;;4.10;2.27;;;;;;;20.95;48.85;147407.89;1732479;83;21004;-60
2022/06/08 03:55:09;;;;;;;6.05;2.35;;;;;;;20.96;49.00;147410.41;1732096;83;21577;-61
2022/06/08 03:57:37;;;;;;;7.83;2.67;;;;;;;20.97;48.76;147412.95;1699731;83;21489;-61
2022/06/08 04:00:08;;;;;;;5.78;2.40;;;;;;;21.01;48.51;147423.03;1731556;83;21012;-61
2022/06/08 04:02:37;;;;;;;6.17;2.37;;;;;;;21.08;48.58;147439.50;1731403;83;21489;-60
2022/06/08 04:05:07;;;;;;;4.08;2.08;;;;;;;21.12;48.36;147449.63;1731654;83;21480;-60
2022/06/08 04:07:34;;;;;;;4.67;2.35;;;;;;;21.17;48.55;147463.53;1731734;83;21015;-61
2022/06/08 04:10:02;;;;;;;5.30;2.55;;;;;;;21.24;48.38;147481.23;1731611;83;21086;-60
2022/06/08 04:12:31;;;;;;;5.83;2.67;;;;;;;21.31;48.31;147497.64;1731979;83;21036;-60
2022/06/08 04:15:00;;;;;;;4.33;2.12;;;;;;;21.37;48.27;147511.53;1723354;83;21054;-60
2022/06/08 04:17:28;;;;;;;7.20;2.52;;;;;;;21.43;48.30;147528.05;1731590;83;21054;-60
2022/06/08 04:19:55;;;;;;;8.90;2.50;;;;;;;21.50;48.12;147543.19;1731744;83;21098;-60
2022/06/08 04:22:30;;;;;;;5.35;2.27;;;;;;;21.60;47.76;147568.48;1731757;83;21063;-60
2022/06/08 04:24:52;;;;;;;6.30;2.72;;;;;;;21.68;47.78;147588.77;1731243;83;21043;-60
2022/06/08 04:27:19;;;;;;;4.92;2.60;;;;;;;21.76;47.62;147607.73;1731531;81;21536;-59
2022/06/08 04:29:48;;;;;;;5.85;2.67;;;;;;;21.83;47.55;147625.41;1731519;81;21074;-60
2022/06/08 04:32:15;;;;;;;5.40;2.50;;;;;;;21.89;47.96;147641.86;1731560;83;21082;-60
2022/06/08 04:34:44;;;;;;;4.97;2.50;;;;;;;21.96;47.67;147657.06;1731910;83;21004;-60
2022/06/08 04:37:13;;;;;;;5.25;2.37;;;;;;;22.04;47.68;147677.30;1732103;82;21043;-60
2022/06/08 04:39:42;;;;;;;3.02;2.00;;;;;;;22.12;47.38;147697.53;1731959;83;21047;-60
2022/06/08 04:42:10;;;;;;;4.17;2.08;;;;;;;22.22;46.98;147722.87;1732117;83;21040;-60
2022/06/08 04:44:40;;;;;;;3.87;1.87;;;;;;;22.31;46.66;147744.36;1732323;83;21484;-60
2022/06/08 04:47:10;;;;;;;7.22;3.00;;;;;;;22.39;46.36;147763.34;1732015;83;21115;-61
2022/06/08 04:49:38;;;;;;;6.55;2.10;;;;;;;22.46;46.32;147781.06;1732018;83;21540;-60
2022/06/08 04:52:07;;;;;;;4.58;2.20;;;;;;;22.54;46.41;147801.30;1732304;83;21031;-60
2022/06/08 04:54:34;;;;;;;6.00;1.92;;;;;;;22.61;46.20;147819.03;1732347;83;21051;-60
2022/06/08 04:57:01;;;;;;;4.80;1.90;;;;;;;22.70;46.10;147840.56;1732331;83;21560;-60
2022/06/08 04:59:28;;;;;;;7.50;1.75;;;;;;;22.76;46.00;147857.00;1732055;83;21011;-60
2022/06/08 05:01:57;;;;;;;4.47;1.60;;;;;;;22.84;45.89;147874.72;1731972;83;21035;-60
2022/06/08 05:04:26;;;;;;;4.03;2.10;;;;;;;22.94;45.78;147900.03;1732032;83;21020;-60
2022/06/08 05:06:54;;;;;;;5.28;2.02;;;;;;;23.04;45.52;147924.14;1732205;83;21098;-60
2022/06/08 05:09:22;;;;;;;3.70;1.70;;;;;;;23.11;45.49;147943.13;1731954;83;21509;-60
2022/06/08 05:11:50;;;;;;;5.97;1.77;;;;;;;23.22;45.41;147968.45;1732227;83;21039;-60
2022/06/08 05:14:20;;;;;;;3.87;1.90;;;;;;;23.31;45.13;147991.25;1731965;83;21051;-60
2022/06/08 05:16:48;;;;;;;5.12;1.65;;;;;;;23.35;44.58;148001.36;1732138;83;21566;-60
2022/06/08 05:19:15;;;;;;;4.80;2.00;;;;;;;23.43;44.63;148021.61;1735287;81;21553;-60
2022/06/08 05:21:43;;;;;;;4.47;1.80;;;;;;;23.53;44.37;148046.94;1762977;81;21543;-61
2022/06/08 05:24:12;;;;;;;3.05;1.75;;;;;;;23.65;44.06;148076.08;1763093;81;21043;-61
2022/06/08 05:26:41;;;;;;;3.52;1.80;;;;;;;23.75;43.46;148100.19;1763389;81;21055;-60
2022/06/08 05:29:08;;;;;;;5.03;1.60;;;;;;;23.83;43.26;148120.44;1761258;81;21504;-60
2022/06/08 05:31:36;;;;;;;4.10;2.10;;;;;;;23.93;42.88;148145.78;1733739;81;21055;-60
2022/06/08 05:34:03;;;;;;;4.42;1.87;;;;;;;24.03;42.89;148171.11;1731400;83;21055;-60
2022/06/08 05:36:31;;;;;;;6.00;1.60;;;;;;;24.12;42.65;148191.38;1731900;83;21045;-60
2022/06/08 05:39:00;;;;;;;6.75;2.02;;;;;;;24.18;42.87;148207.84;1732072;83;21063;-60
2022/06/08 05:41:29;;;;;;;4.37;1.70;;;;;;;24.26;43.04;148228.13;1741529;81;21506;-60
2022/06/08 05:43:57;;;;;;;6.67;2.05;;;;;;;24.33;42.72;148244.59;1764050;81;21045;-60
2022/06/08 05:46:24;;;;;;;4.53;2.05;;;;;;;24.37;42.65;148254.72;1762872;80;21035;-61
2022/06/08 05:48:53;;;;;;;5.47;2.05;;;;;;;24.44;42.78;148272.45;1760859;81;21016;-60
2022/06/08 05:51:20;;;;;;;4.83;1.85;;;;;;;24.78;42.00;148356.19;1763452;81;21015;-61
2022/06/08 05:53:47;;;;;;;3.83;1.80;;;;;;;26.11;40.16;148685.91;1745361;81;21133;-60
2022/06/08 05:56:15;;;;;;;6.17;2.00;;;;;;;28.10;37.13;149179.78;1763276;81;21157;-60
2022/06/08 05:58:44;;;;;;;7.53;1.65;;;;;;;29.75;34.31;149587.84;1763328;81;21504;-61
2022/06/08 06:01:11;;;;;;;4.55;1.40;;;;;;;30.82;32.78;149855.00;1763577;81;20991;-61
2022/06/08 06:03:39;;;;;;;3.00;1.40;;;;;;;32.10;31.21;150173.23;1763289;81;21008;-60
2022/06/08 06:06:07;;;;;;;4.53;1.42;;;;;;;33.31;29.43;150472.66;1761294;81;21043;-60
2022/06/08 06:08:35;;;;;;;3.50;1.30;;;;;;;34.59;27.41;150792.66;1762933;81;21040;-60
2022/06/08 06:11:07;;;;;;;7.37;1.27;;;;;;;35.65;25.72;151058.02;1762643;81;21088;-60
2022/06/08 06:13:41;;;;;;;3.20;1.45;;;;;;;36.65;24.59;151306.92;1763380;81;21032;-60
2022/06/08 06:16:10;;;;;;;2.80;1.85;;;;;;;37.55;23.70;151530.41;1734440;81;21078;-60
2022/06/08 06:18:38;;;;;;;8.45;1.95;;;;;;;38.68;22.62;151812.81;1673495;84;21556;-61
2022/06/08 06:21:19;;;;;;;6.80;1.40;;;;;;;39.33;21.45;151975.13;1674288;86;21107;-61
2022/06/08 06:23:53;;;;;;;4.28;1.40;;;;;;;38.72;21.37;151821.75;1673714;86;21588;-61
2022/06/08 06:26:34;;;;;;;4.58;1.37;;;;;;;38.92;21.07;151872.91;1691548;84;21067;-61
2022/06/08 06:29:07;;;;;;;4.62;1.80;;;;;;;39.20;20.99;151941.91;1667209;86;21071;-60
2022/06/08 06:31:44;;;;;;;6.58;1.98;;;;;;;38.80;21.31;151842.17;1675209;85;21063;-61
2022/06/08 06:34:15;;;;;;;4.37;1.40;;;;;;;38.72;21.25;151821.75;1680096;85;21079;-61
2022/06/08 06:36:42;;;;;;;4.05;1.45;;;;;;;39.28;20.83;151962.34;1681025;85;20983;-61
2022/06/08 06:39:10;;;;;;;6.17;1.45;;;;;;;39.86;20.38;152108.17;1680801;85;21063;-61
2022/06/08 06:41:39;;;;;;;2.47;1.40;;;;;;;40.52;19.80;152271.89;1680695;85;21508;-61
2022/06/08 06:44:06;;;;;;;5.80;0.98;;;;;;;41.03;18.83;152399.83;1676510;85;21000;-61
2022/06/08 06:46:35;;;;;;;4.58;1.12;;;;;;;40.48;18.45;152261.64;1673280;85;21024;-60
2022/06/08 06:49:04;;;;;;;3.98;0.90;;;;;;;39.74;19.15;152077.42;1673058;86;21517;-61
2022/06/08 06:51:34;;;;;;;4.60;1.00;;;;;;;38.96;19.74;151883.14;1673341;86;21020;-61
2022/06/08 06:54:03;;;;;;;3.40;1.17;;;;;;;38.68;19.87;151811.55;1673653;84;20990;-62
2022/06/08 06:56:32;;;;;;;3.08;1.47;;;;;;;39.11;19.71;151920.20;1674502;86;20966;-61
2022/06/08 06:59:02;;;;;;;2.15;1.00;;;;;;;39.97;19.19;152133.73;1674344;86;21002;-61
2022/06/08 07:01:32;;;;;;;3.98;1.20;;;;;;;40.85;18.49;152353.78;1674748;86;20998;-62
2022/06/08 07:04:00;;;;;;;2.90;1.10;;;;;;;41.18;18.09;152436.98;1674435;86;21029;-61
2022/06/08 07:06:29;;;;;;;5.58;1.07;;;;;;;41.76;17.69;152582.88;1674498;85;21497;-61
2022/06/08 07:08:59;;;;;;;4.28;1.20;;;;;;;42.29;16.99;152716.03;1674629;86;21513;-61
2022/06/08 07:11:40;;;;;;;4.17;1.00;;;;;;;42.56;17.07;152781.34;1674669;86;21485;-62
2022/06/08 07:14:13;;;;;;;6.00;1.00;;;;;;;43.13;16.40;152926.06;1671691;86;21016;-61
2022/06/08 07:16:40;;;;;;;2.05;0.82;;;;;;;43.31;16.18;152970.92;1678590;83;21027;-61
2022/06/08 07:19:09;;;;;;;4.50;1.45;;;;;;;42.83;15.88;152850.52;1698624;82;21059;-61
2022/06/08 07:21:36;;;;;;;4.33;1.32;;;;;;;40.95;17.17;152379.37;1698165;83;21040;-62
2022/06/08 07:27:37;;;;;;;2.67;0.95;;;;;;;39.89;18.41;152115.83;1783634;79;22574;-61
2022/06/08 07:30:07;;;;;;;4.83;0.80;;;;;;;38.64;19.27;151802.58;1747547;81;21560;-61
2022/06/08 07:32:34;;;;;;;4.65;1.30;;;;;;;37.35;20.39;151481.88;1758215;81;20972;-64
2022/06/08 07:35:04;;;;;;;3.95;1.47;;;;;;;37.70;20.08;151568.72;1754919;81;21524;-61
2022/06/08 07:37:31;;;;;;;4.22;1.07;;;;;;;38.28;19.87;151711.84;1756186;81;21022;-62
2022/06/08 07:39:58;;;;;;;3.35;0.95;;;;;;;39.02;19.26;151898.45;1762274;81;21056;-61
2022/06/08 07:42:25;;;;;;;3.00;1.00;;;;;;;39.92;18.37;152123.53;1760439;80;21498;-62
2022/06/08 07:44:52;;;;;;;2.12;0.70;;;;;;;39.83;18.34;152100.50;1756144;81;21497;-62
2022/06/08 07:47:19;;;;;;;2.15;1.00;;;;;;;39.76;18.61;152082.55;1755813;81;21046;-61
2022/06/08 07:49:49;;;;;;;3.22;1.00;;;;;;;39.45;18.60;152004.59;1756591;81;21051;-62
2022/06/08 07:52:19;;;;;;;2.02;0.82;;;;;;;39.30;19.02;151967.47;1751697;81;21109;-61
2022/06/08 07:54:47;;;;;;;2.30;0.90;;;;;;;40.06;18.54;152156.77;1753642;81;21549;-61
2022/06/08 07:57:25;;;;;;;1.92;1.00;;;;;;;40.73;17.32;152325.63;1754867;81;21083;-61
2022/06/08 07:59:53;;;;;;;10.60;1.17;;;;;;;40.43;17.79;152250.17;1756872;81;21002;-61
2022/06/08 08:02:20;;;;;;;4.08;2.30;;;;;;;39.43;18.40;151999.47;1758401;81;21003;-61
2022/06/08 08:04:47;;;;;;;3.35;1.10;;;;;;;37.62;19.75;151548.30;1767307;81;22174;-60
2022/06/08 08:07:15;;;;;;;2.58;0.95;;;;;;;35.71;20.99;151070.78;1748741;81;21569;-61
2022/06/08 08:09:42;;;;;;;3.60;1.17;;;;;;;34.53;22.00;150778.59;1758300;81;21080;-61
2022/06/08 08:12:12;;;;;;;1.75;0.93;;;;;;;34.23;22.42;150702.13;1751172;81;21059;-61
2022/06/08 08:14:40;;;;;;;3.55;1.85;;;;;;;34.59;22.38;150792.66;1761977;81;21051;-61
2022/06/08 08:17:07;;;;;;;1.85;1.20;;;;;;;34.98;21.94;150889.55;1755035;81;21140;-62
2022/06/08 08:19:38;;;;;;;2.40;1.07;;;;;;;34.09;23.45;150667.67;1754605;81;21071;-61
2022/06/08 08:22:06;;;;;;;4.47;1.30;;;;;;;32.92;25.13;150377.03;1750861;81;21013;-62
2022/06/08 08:24:33;;;;;;;5.15;1.30;;;;;;;32.62;25.39;150303.19;1754534;81;21047;-62
2022/06/08 08:27:00;;;;;;;4.10;1.72;;;;;;;32.19;25.45;150194.91;1744990;81;21094;-63
2022/06/08 08:29:28;;;;;;;2.98;1.65;;;;;;;31.65;26.10;150061.20;1741001;82;21062;-61
2022/06/08 08:31:55;;;;;;;7.20;1.72;;;;;;;31.90;26.51;150122.27;1752812;81;21409;-61
2022/06/08 08:34:23;;;;;;;4.55;1.45;;;;;;;33.32;25.52;150476.45;1744059;81;21064;-61
2022/06/08 08:36:50;;;;;;;5.22;1.47;;;;;;;34.24;23.88;150704.64;1733968;82;21561;-61
2022/06/08 08:39:17;;;;;;;5.62;1.10;;;;;;;33.95;23.54;150633.23;1733967;81;21609;-61
2022/06/08 08:44:48;;;;;;;5.05;1.22;;;;;;;31.98;25.57;150142.69;1747619;81;21503;-61
2022/06/08 08:47:51;;;;;;;5.03;1.50;;;;;;;32.22;25.29;150203.81;1717621;83;21345;-62
2022/06/08 08:50:44;;;;;;;4.15;1.20;;;;;;;31.76;25.48;150089.19;1738174;81;21557;-62
2022/06/08 08:53:26;;;;;;;2.52;1.20;;;;;;;31.69;25.61;150071.36;1738917;82;21048;-61
2022/06/08 08:56:19;;;;;;;2.00;1.30;;;;;;;31.43;25.59;150005.20;1733608;82;21041;-62
2022/06/08 08:58:49;;;;;;;4.78;1.60;;;;;;;31.43;26.12;150006.47;1755028;81;21133;-61
2022/06/08 09:01:20;;;;;;;3.62;1.25;;;;;;;31.53;26.49;150030.66;1743017;81;21064;-61
2022/06/08 09:04:07;;;;;;;2.52;1.57;;;;;;;31.49;26.23;150021.72;1744518;81;21039;-61
2022/06/08 09:06:36;;;;;;;4.70;1.12;;;;;;;31.18;26.63;149944.06;1742364;81;21067;-61
2022/06/08 09:09:08;;;;;;;3.55;1.22;;;;;;;30.93;26.88;149882.97;1738173;81;21103;-60
2022/06/08 09:11:42;;;;;;;5.87;2.08;;;;;;;31.13;26.90;149932.59;1726939;81;21060;-61
2022/06/08 09:14:23;;;;;;;2.67;1.47;;;;;;;31.26;27.20;149963.14;1738656;82;21128;-61
2022/06/08 09:16:55;;;;;;;3.67;1.40;;;;;;;30.99;27.21;149895.69;1748230;81;21042;-61
2022/06/08 09:19:26;;;;;;;5.97;1.82;;;;;;;30.32;28.06;149730.28;1716929;81;21024;-60
2022/06/08 09:22:13;;;;;;;3.02;1.40;;;;;;;29.95;28.48;149638.70;1724265;81;21095;-60
2022/06/08 09:24:51;;;;;;;3.30;1.60;;;;;;;29.71;28.87;149578.92;1752453;81;21015;-61
2022/06/08 09:27:33;;;;;;;3.87;1.52;;;;;;;29.31;28.89;149478.44;1725155;81;21142;-61
2022/06/08 09:30:24;;;;;;;5.15;1.67;;;;;;;28.91;29.64;149379.31;1733753;81;21012;-60
2022/06/08 09:33:17;;;;;;;3.77;2.10;;;;;;;28.92;29.62;149381.83;1742439;81;21036;-62
2022/06/08 09:35:58;;;;;;;5.03;1.50;;;;;;;28.81;30.05;149353.89;1732652;81;20988;-61
2022/06/08 09:38:29;;;;;;;2.42;1.52;;;;;;;28.27;30.62;149221.72;1735193;81;21085;-61
2022/06/08 09:41:28;;;;;;;3.60;1.77;;;;;;;28.08;31.14;149173.44;1729912;82;21552;-61
2022/06/08 09:44:21;;;;;;;2.90;1.42;;;;;;;28.09;30.56;149177.27;1737040;81;21467;-61
2022/06/08 09:53:23;;;;;;;5.90;1.70;;;;;;;28.16;31.40;149192.48;1725378;82;21026;-61
2022/06/08 09:56:01;;;;;;;8.35;1.87;;;;;;;28.13;31.47;149186.14;1740143;82;21056;-62
2022/06/08 09:59:11;;;;;;;4.28;1.80;;;;;;;28.02;31.47;149158.22;1742821;82;21004;-61
2022/06/08 10:01:56;;;;;;;4.90;1.80;;;;;;;27.86;31.62;149118.81;1740632;82;21024;-61
2022/06/08 10:04:34;;;;;;;4.33;2.02;;;;;;;27.74;32.10;149089.59;1748382;81;21083;-61
2022/06/08 10:07:22;;;;;;;7.17;1.70;;;;;;;27.58;32.80;149050.25;1732730;81;21001;-61
2022/06/08 10:10:06;;;;;;;4.92;1.70;;;;;;;27.69;32.85;149078.16;1749459;81;21098;-60
2022/06/08 10:12:51;;;;;;;2.90;1.50;;;;;;;27.87;32.33;149122.64;1751727;81;21021;-61
2022/06/08 10:15:36;;;;;;;3.37;1.85;;;;;;;27.97;32.03;149146.78;1746123;81;21596;-61
2022/06/08 10:18:36;;;;;;;6.78;2.17;;;;;;;27.77;32.63;149097.20;1735108;82;21103;-61
2022/06/08 10:21:23;;;;;;;5.40;1.80;;;;;;;27.54;32.41;149038.81;1732487;81;21049;-61
2022/06/08 10:24:28;;;;;;;3.55;1.62;;;;;;;27.39;32.78;149003.23;1727730;81;21020;-61
2022/06/08 10:27:15;;;;;;;3.87;1.50;;;;;;;27.57;33.56;149047.67;1742529;81;21043;-61
2022/06/08 10:30:03;;;;;;;3.72;1.67;;;;;;;27.88;32.82;149125.16;1731852;82;21033;-61
2022/06/08 10:32:35;;;;;;;4.12;1.65;;;;;;;28.11;32.40;149181.05;1738537;81;21187;-61
2022/06/08 10:35:42;;;;;;;4.60;1.60;;;;;;;28.27;30.87;149221.72;1746926;81;21021;-62
2022/06/08 10:38:33;;;;;;;3.98;1.62;;;;;;;28.14;31.43;149188.70;1747641;82;21619;-61
2022/06/08 10:44:00;;;;;;;3.05;1.80;;;;;;;28.13;31.83;149187.41;1751258;81;21545;-61
2022/06/08 10:46:42;;;;;;;4.08;1.75;;;;;;;28.03;31.55;149160.73;1737298;82;21087;-61
2022/06/08 10:49:33;;;;;;;3.55;1.37;;;;;;;27.80;32.05;149104.81;1747660;81;21060;-61
2022/06/08 10:52:24;;;;;;;3.72;1.80;;;;;;;27.99;31.72;149150.61;1739164;82;21532;-64
2022/06/08 10:54:58;;;;;;;5.00;1.82;;;;;;;28.38;31.91;149247.13;1739560;81;21510;-61
2022/06/08 10:57:53;;;;;;;3.95;1.90;;;;;;;28.53;31.51;149285.28;1734877;82;21088;-61
2022/06/08 11:00:59;;;;;;;3.12;1.67;;;;;;;28.32;31.48;149234.42;1726733;82;21059;-61
2022/06/08 11:03:45;;;;;;;4.40;1.85;;;;;;;28.31;30.94;149231.84;1740888;81;21067;-61
2022/06/08 11:06:34;;;;;;;8.33;2.30;;;;;;;28.31;31.40;149230.59;1746979;81;21313;-61
2022/06/08 11:09:03;;;;;;;2.77;1.57;;;;;;;28.38;31.32;149247.13;1750499;81;21080;-61
2022/06/08 11:11:50;;;;;;;3.92;1.77;;;;;;;28.31;31.54;149231.84;1749534;82;21083;-60
2022/06/08 11:14:52;;;;;;;3.62;1.50;;;;;;;28.51;31.85;149280.19;1742826;81;21064;-61
2022/06/08 11:17:35;;;;;;;2.65;1.60;;;;;;;28.84;31.26;149361.50;1740338;81;21083;-60
2022/06/08 11:20:35;;;;;;;3.17;1.55;;;;;;;29.09;30.75;149423.83;1744038;81;21119;-60
2022/06/08 11:23:18;;;;;;;3.75;1.50;;;;;;;29.28;29.76;149472.09;1737977;81;21107;-60
2022/06/08 11:26:23;;;;;;;3.47;1.70;;;;;;;29.21;29.91;149455.59;1709165;82;21894;-60
2022/06/08 11:29:01;;;;;;;4.78;1.72;;;;;;;29.11;29.68;149430.19;1749113;81;21024;-60
2022/06/08 11:31:33;;;;;;;3.33;1.47;;;;;;;28.81;29.06;149355.16;1745748;81;21079;-60
2022/06/08 11:34:23;;;;;;;5.65;1.50;;;;;;;28.55;30.01;149291.63;1760702;81;21056;-60
2022/06/08 11:37:05;;;;;;;3.62;1.50;;;;;;;28.35;28.90;149242.03;1756218;81;20969;-62
2022/06/08 11:39:45;;;;;;;3.50;1.40;;;;;;;28.28;29.33;149224.25;1760641;81;21012;-61
2022/06/08 11:42:22;;;;;;;2.92;1.52;;;;;;;28.35;30.68;149240.78;1741831;82;21580;-61
2022/06/08 11:44:57;;;;;;;6.97;1.92;;;;;;;28.17;30.47;149196.31;1746819;81;21040;-61
2022/06/08 11:47:35;;;;;;;4.90;1.80;;;;;;;28.18;31.38;149198.84;1747101;82;20992;-61
2022/06/08 11:50:16;;;;;;;9.98;2.00;;;;;;;28.22;31.51;149207.75;1719884;82;21499;-60
2022/06/08 11:52:47;;;;;;;6.42;2.00;;;;;;;28.39;31.14;149249.64;1723184;82;21056;-61
2022/06/08 11:55:21;;;;;;;4.40;1.93;;;;;;;28.52;31.25;149284.02;1748840;81;21067;-64
2022/06/08 11:58:00;;;;;;;3.15;1.60;;;;;;;28.70;30.58;149327.17;1744043;82;21150;-61
2022/06/08 12:00:35;;;;;;;5.47;1.90;;;;;;;28.74;30.68;149338.63;1755548;81;21055;-61
2022/06/08 12:03:35;;;;;;;6.42;2.77;;;;;;;28.78;30.53;149348.80;1747651;81;21055;-61
2022/06/08 12:06:17;;;;;;;6.55;1.75;;;;;;;28.86;31.00;149366.59;1745070;81;20997;-61
2022/06/08 12:08:55;;;;;;;6.97;2.75;;;;;;;28.68;30.34;149323.39;1737012;81;21034;-61
2022/06/08 12:11:26;;;;;;;6.00;2.12;;;;;;;28.44;30.92;149262.34;1735047;81;21032;-61
2022/06/08 12:14:16;;;;;;;5.83;1.97;;;;;;;28.49;30.72;149275.09;1747633;82;21016;-61
2022/06/08 12:17:16;;;;;;;5.45;2.00;;;;;;;28.76;30.69;149343.70;1747351;81;21020;-61
2022/06/08 12:19:54;;;;;;;11.23;5.93;;;;;;;29.12;30.35;149431.44;1736671;82;22224;-61